sensor_id;sensor_type;location;lat;lon;timestamp;pressure;altitude;pressure_sealevel;temperature;humidity
31005;BME280;17676;52.254;4.490;2023-04-05T00:00:46;102365.56;;;5.07;100.00
31005;BME280;17676;52.254;4.490;2023-04-05T00:03:12;102342.69;;;5.03;100.00
31005;BME280;17676;52.254;4.490;2023-04-05T00:05:38;102340.47;;;5.08;100.00
31005;BME280;17676;52.254;4.490;2023-04-05T00:08:04;102330.25;;;5.02;100.00
31005;BME280;17676;52.254;4.490;2023-04-05T00:10:37;102330.81;;;4.96;100.00
31005;BME280;17676;52.254;4.490;2023-04-05T00:13:03;102341.56;;;5.06;100.00
31005;BME280;17676;52.254;4.490;2023-04-05T00:15:29;102328.00;;;5.07;100.00
31005;BME280;17676;52.254;4.490;2023-04-05T00:17:56;102334.50;;;5.05;100.00
31005;BME280;17676;52.254;4.490;2023-04-05T00:20:22;102311.22;;;5.05;100.00
31005;BME280;17676;52.254;4.490;2023-04-05T00:22:47;102317.00;;;5.10;100.00
31005;BME280;17676;52.254;4.490;2023-04-05T00:25:15;102320.41;;;5.12;100.00
31005;BME280;17676;52.254;4.490;2023-04-05T00:27:44;102322.81;;;5.15;100.00
31005;BME280;17676;52.254;4.490;2023-04-05T00:30:10;102323.50;;;5.08;100.00
31005;BME280;17676;52.254;4.490;2023-04-05T00:32:36;102314.00;;;4.94;100.00
31005;BME280;17676;52.254;4.490;2023-04-05T00:35:02;102319.31;;;4.85;100.00
31005;BME280;17676;52.254;4.490;2023-04-05T00:37:28;102315.34;;;4.79;100.00
31005;BME280;17676;52.254;4.490;2023-04-05T00:39:53;102304.44;;;4.71;100.00
31005;BME280;17676;52.254;4.490;2023-04-05T00:42:22;102327.31;;;4.75;100.00
31005;BME280;17676;52.254;4.490;2023-04-05T00:44:47;102291.91;;;4.51;100.00
31005;BME280;17676;52.254;4.490;2023-04-05T00:47:13;102316.22;;;4.59;100.00
31005;BME280;17676;52.254;4.490;2023-04-05T00:49:39;102300.25;;;4.48;100.00
31005;BME280;17676;52.254;4.490;2023-04-05T00:52:05;102299.00;;;4.52;100.00
31005;BME280;17676;52.254;4.490;2023-04-05T00:54:31;102307.75;;;4.54;100.00
31005;BME280;17676;52.254;4.490;2023-04-05T00:56:58;102290.91;;;4.43;100.00
31005;BME280;17676;52.254;4.490;2023-04-05T00:59:24;102282.00;;;4.42;100.00
31005;BME280;17676;52.254;4.490;2023-04-05T01:01:59;102301.50;;;4.44;100.00
31005;BME280;17676;52.254;4.490;2023-04-05T01:04:27;102277.72;;;4.30;100.00
31005;BME280;17676;52.254;4.490;2023-04-05T01:07:08;102293.28;;;4.36;100.00
31005;BME280;17676;52.254;4.490;2023-04-05T01:09:59;102275.72;;;4.23;100.00
31005;BME280;17676;52.254;4.490;2023-04-05T01:12:30;102276.09;;;4.18;100.00
31005;BME280;17676;52.254;4.490;2023-04-05T01:14:57;102273.94;;;4.12;100.00
31005;BME280;17676;52.254;4.490;2023-04-05T01:17:25;102276.16;;;4.07;100.00
31005;BME280;17676;52.254;4.490;2023-04-05T01:20:02;102284.53;;;4.14;100.00
31005;BME280;17676;52.254;4.490;2023-04-05T01:34:24;102265.41;;;3.98;100.00
31005;BME280;17676;52.254;4.490;2023-04-05T01:37:02;102253.06;;;3.86;100.00
31005;BME280;17676;52.254;4.490;2023-04-05T01:39:30;102240.00;;;3.92;100.00
31005;BME280;17676;52.254;4.490;2023-04-05T01:41:59;102244.50;;;3.92;100.00
31005;BME280;17676;52.254;4.490;2023-04-05T01:44:25;102251.28;;;3.96;100.00
31005;BME280;17676;52.254;4.490;2023-04-05T01:46:51;102247.03;;;3.93;100.00
31005;BME280;17676;52.254;4.490;2023-04-05T01:49:16;102248.94;;;4.02;100.00
31005;BME280;17676;52.254;4.490;2023-04-05T01:51:42;102246.78;;;3.96;100.00
31005;BME280;17676;52.254;4.490;2023-04-05T01:54:08;102247.91;;;3.94;100.00
31005;BME280;17676;52.254;4.490;2023-04-05T01:56:33;102232.09;;;3.91;100.00
31005;BME280;17676;52.254;4.490;2023-04-05T01:58:59;102231.34;;;3.89;100.00
31005;BME280;17676;52.254;4.490;2023-04-05T02:01:24;102225.44;;;3.85;100.00
31005;BME280;17676;52.254;4.490;2023-04-05T02:03:49;102217.78;;;3.81;100.00
31005;BME280;17676;52.254;4.490;2023-04-05T02:06:15;102208.47;;;3.75;100.00
31005;BME280;17676;52.254;4.490;2023-04-05T02:08:40;102216.09;;;3.80;100.00
31005;BME280;17676;52.254;4.490;2023-04-05T02:11:06;102190.97;;;3.71;100.00
31005;BME280;17676;52.254;4.490;2023-04-05T02:13:31;102205.63;;;3.77;100.00
31005;BME280;17676;52.254;4.490;2023-04-05T02:15:57;102195.91;;;3.76;100.00
31005;BME280;17676;52.254;4.490;2023-04-05T02:18:22;102182.31;;;3.68;100.00
31005;BME280;17676;52.254;4.490;2023-04-05T02:21:00;102180.25;;;3.71;100.00
31005;BME280;17676;52.254;4.490;2023-04-05T02:23:27;102185.06;;;3.77;100.00
31005;BME280;17676;52.254;4.490;2023-04-05T02:25:55;102191.41;;;3.76;100.00
31005;BME280;17676;52.254;4.490;2023-04-05T02:28:20;102180.09;;;3.73;100.00
31005;BME280;17676;52.254;4.490;2023-04-05T02:30:46;102190.22;;;3.69;100.00
31005;BME280;17676;52.254;4.490;2023-04-05T02:33:11;102193.91;;;3.68;100.00
31005;BME280;17676;52.254;4.490;2023-04-05T02:35:37;102173.78;;;3.53;100.00
31005;BME280;17676;52.254;4.490;2023-04-05T02:38:03;102171.97;;;3.54;100.00
31005;BME280;17676;52.254;4.490;2023-04-05T02:40:29;102177.19;;;3.55;100.00
31005;BME280;17676;52.254;4.490;2023-04-05T02:42:55;102176.00;;;3.48;100.00
31005;BME280;17676;52.254;4.490;2023-04-05T02:45:20;102183.03;;;3.49;100.00
31005;BME280;17676;52.254;4.490;2023-04-05T02:47:46;102176.50;;;3.42;100.00
31005;BME280;17676;52.254;4.490;2023-04-05T02:50:11;102163.91;;;3.33;100.00
31005;BME280;17676;52.254;4.490;2023-04-05T02:52:37;102175.34;;;3.35;100.00
31005;BME280;17676;52.254;4.490;2023-04-05T02:55:04;102175.59;;;3.32;100.00
31005;BME280;17676;52.254;4.490;2023-04-05T02:57:30;102169.06;;;3.25;100.00
31005;BME280;17676;52.254;4.490;2023-04-05T02:59:56;102166.06;;;3.19;100.00
31005;BME280;17676;52.254;4.490;2023-04-05T03:02:21;102162.28;;;3.21;100.00
31005;BME280;17676;52.254;4.490;2023-04-05T03:04:47;102163.25;;;3.20;100.00
31005;BME280;17676;52.254;4.490;2023-04-05T03:07:12;102172.97;;;3.21;100.00
31005;BME280;17676;52.254;4.490;2023-04-05T03:09:44;102169.59;;;3.19;100.00
31005;BME280;17676;52.254;4.490;2023-04-05T03:12:10;102165.28;;;3.07;100.00
31005;BME280;17676;52.254;4.490;2023-04-05T03:14:37;102177.13;;;3.14;100.00
31005;BME280;17676;52.254;4.490;2023-04-05T03:17:03;102191.25;;;3.16;100.00
31005;BME280;17676;52.254;4.490;2023-04-05T03:19:28;102181.78;;;3.12;100.00
31005;BME280;17676;52.254;4.490;2023-04-05T03:21:54;102173.00;;;3.10;100.00
31005;BME280;17676;52.254;4.490;2023-04-05T03:24:19;102183.34;;;3.15;100.00
31005;BME280;17676;52.254;4.490;2023-04-05T03:26:46;102179.09;;;3.12;100.00
31005;BME280;17676;52.254;4.490;2023-04-05T03:29:12;102183.00;;;3.08;100.00
31005;BME280;17676;52.254;4.490;2023-04-05T03:31:37;102177.66;;;3.08;100.00
31005;BME280;17676;52.254;4.490;2023-04-05T03:34:03;102164.06;;;3.00;100.00
31005;BME280;17676;52.254;4.490;2023-04-05T03:36:29;102155.81;;;3.03;100.00
31005;BME280;17676;52.254;4.490;2023-04-05T03:38:55;102168.91;;;3.06;100.00
31005;BME280;17676;52.254;4.490;2023-04-05T03:41:21;102169.75;;;3.07;100.00
31005;BME280;17676;52.254;4.490;2023-04-05T03:43:47;102162.09;;;3.02;100.00
31005;BME280;17676;52.254;4.490;2023-04-05T03:46:13;102159.09;;;2.96;100.00
31005;BME280;17676;52.254;4.490;2023-04-05T03:48:38;102166.19;;;2.86;100.00
31005;BME280;17676;52.254;4.490;2023-04-05T03:51:04;102157.19;;;2.87;100.00
31005;BME280;17676;52.254;4.490;2023-04-05T03:53:30;102163.41;;;2.87;100.00
31005;BME280;17676;52.254;4.490;2023-04-05T03:55:55;102162.78;;;2.84;100.00
31005;BME280;17676;52.254;4.490;2023-04-05T03:58:21;102151.50;;;2.80;100.00
31005;BME280;17676;52.254;4.490;2023-04-05T04:00:46;102148.63;;;2.72;100.00
31005;BME280;17676;52.254;4.490;2023-04-05T04:03:13;102142.28;;;2.73;100.00
31005;BME280;17676;52.254;4.490;2023-04-05T04:05:39;102163.50;;;2.97;100.00
31005;BME280;17676;52.254;4.490;2023-04-05T04:08:04;102146.84;;;2.93;100.00
31005;BME280;17676;52.254;4.490;2023-04-05T04:10:30;102154.34;;;2.99;100.00
31005;BME280;17676;52.254;4.490;2023-04-05T04:12:56;102151.06;;;2.96;100.00
31005;BME280;17676;52.254;4.490;2023-04-05T04:15:21;102154.03;;;2.93;100.00
31005;BME280;17676;52.254;4.490;2023-04-05T04:17:47;102152.31;;;2.92;100.00
31005;BME280;17676;52.254;4.490;2023-04-05T04:20:13;102163.28;;;3.09;100.00
31005;BME280;17676;52.254;4.490;2023-04-05T04:22:39;102164.75;;;3.13;100.00
31005;BME280;17676;52.254;4.490;2023-04-05T04:25:09;102143.53;;;3.01;100.00
31005;BME280;17676;52.254;4.490;2023-04-05T04:27:40;102132.63;;;2.93;100.00
31005;BME280;17676;52.254;4.490;2023-04-05T04:30:08;102140.25;;;2.97;100.00
31005;BME280;17676;52.254;4.490;2023-04-05T04:32:35;102136.38;;;2.90;100.00
31005;BME280;17676;52.254;4.490;2023-04-05T04:35:24;102160.41;;;3.01;100.00
31005;BME280;17676;52.254;4.490;2023-04-05T04:37:57;102152.09;;;2.84;100.00
31005;BME280;17676;52.254;4.490;2023-04-05T04:40:31;102161.84;;;2.85;100.00
31005;BME280;17676;52.254;4.490;2023-04-05T04:43:03;102146.53;;;2.76;100.00
31005;BME280;17676;52.254;4.490;2023-04-05T04:45:29;102148.63;;;2.72;100.00
31005;BME280;17676;52.254;4.490;2023-04-05T04:47:59;102159.31;;;2.72;100.00
31005;BME280;17676;52.254;4.490;2023-04-05T04:50:25;102142.59;;;2.59;100.00
31005;BME280;17676;52.254;4.490;2023-04-05T04:52:51;102139.16;;;2.57;100.00
31005;BME280;17676;52.254;4.490;2023-04-05T04:55:18;102140.38;;;2.53;100.00
31005;BME280;17676;52.254;4.490;2023-04-05T04:57:51;102157.63;;;2.60;100.00
31005;BME280;17676;52.254;4.490;2023-04-05T05:00:17;102155.94;;;2.48;100.00
31005;BME280;17676;52.254;4.490;2023-04-05T05:02:43;102162.50;;;2.55;100.00
31005;BME280;17676;52.254;4.490;2023-04-05T05:05:16;102138.94;;;2.49;100.00
31005;BME280;17676;52.254;4.490;2023-04-05T05:07:42;102150.25;;;2.42;100.00
31005;BME280;17676;52.254;4.490;2023-04-05T05:10:09;102169.78;;;2.53;100.00
31005;BME280;17676;52.254;4.490;2023-04-05T05:12:34;102169.78;;;2.53;100.00
31005;BME280;17676;52.254;4.490;2023-04-05T05:15:00;102175.59;;;2.58;100.00
31005;BME280;17676;52.254;4.490;2023-04-05T05:17:25;102174.88;;;2.56;100.00
31005;BME280;17676;52.254;4.490;2023-04-05T05:19:51;102185.34;;;2.59;100.00
31005;BME280;17676;52.254;4.490;2023-04-05T05:22:17;102180.22;;;2.56;100.00
31005;BME280;17676;52.254;4.490;2023-04-05T05:24:46;102188.72;;;2.61;100.00
31005;BME280;17676;52.254;4.490;2023-04-05T05:27:12;102188.47;;;2.64;100.00
31005;BME280;17676;52.254;4.490;2023-04-05T05:29:37;102180.00;;;2.59;100.00
31005;BME280;17676;52.254;4.490;2023-04-05T05:32:03;102194.75;;;2.74;100.00
31005;BME280;17676;52.254;4.490;2023-04-05T05:34:32;102174.88;;;2.67;100.00
31005;BME280;17676;52.254;4.490;2023-04-05T05:36:57;102193.81;;;2.75;100.00
31005;BME280;17676;52.254;4.490;2023-04-05T05:39:23;102178.00;;;2.72;100.00
31005;BME280;17676;52.254;4.490;2023-04-05T05:41:49;102194.03;;;2.83;100.00
31005;BME280;17676;52.254;4.490;2023-04-05T05:44:14;102191.44;;;2.93;100.00
31005;BME280;17676;52.254;4.490;2023-04-05T05:46:40;102201.25;;;3.03;100.00
31005;BME280;17676;52.254;4.490;2023-04-05T05:49:05;102189.22;;;3.09;100.00
31005;BME280;17676;52.254;4.490;2023-04-05T05:51:31;102194.63;;;3.18;100.00
31005;BME280;17676;52.254;4.490;2023-04-05T05:54:00;102212.09;;;3.22;100.00
31005;BME280;17676;52.254;4.490;2023-04-05T05:56:26;102205.41;;;3.28;100.00
31005;BME280;17676;52.254;4.490;2023-04-05T05:58:51;102209.22;;;3.46;100.00
31005;BME280;17676;52.254;4.490;2023-04-05T06:01:17;102190.09;;;3.50;100.00
31005;BME280;17676;52.254;4.490;2023-04-05T06:03:47;102190.56;;;3.55;100.00
31005;BME280;17676;52.254;4.490;2023-04-05T06:06:14;102195.34;;;3.72;100.00
31005;BME280;17676;52.254;4.490;2023-04-05T06:08:40;102200.28;;;3.77;100.00
31005;BME280;17676;52.254;4.490;2023-04-05T06:11:05;102190.88;;;3.82;100.00
31005;BME280;17676;52.254;4.490;2023-04-05T06:13:31;102198.78;;;3.84;100.00
31005;BME280;17676;52.254;4.490;2023-04-05T06:16:00;102193.75;;;3.90;100.00
31005;BME280;17676;52.254;4.490;2023-04-05T06:18:25;102197.28;;;3.91;100.00
31005;BME280;17676;52.254;4.490;2023-04-05T06:20:50;102183.03;;;3.90;100.00
31005;BME280;17676;52.254;4.490;2023-04-05T06:23:18;102193.84;;;4.09;100.00
31005;BME280;17676;52.254;4.490;2023-04-05T06:25:44;102196.72;;;4.17;100.00
31005;BME280;17676;52.254;4.490;2023-04-05T06:28:09;102191.91;;;4.21;100.00
31005;BME280;17676;52.254;4.490;2023-04-05T06:30:35;102193.66;;;4.31;100.00
31005;BME280;17676;52.254;4.490;2023-04-05T06:33:00;102194.28;;;4.44;100.00
31005;BME280;17676;52.254;4.490;2023-04-05T06:35:26;102195.88;;;4.56;100.00
31005;BME280;17676;52.254;4.490;2023-04-05T06:37:51;102202.94;;;4.57;100.00
31005;BME280;17676;52.254;4.490;2023-04-05T06:40:18;102198.31;;;4.69;100.00
31005;BME280;17676;52.254;4.490;2023-04-05T06:42:44;102189.28;;;4.79;100.00
31005;BME280;17676;52.254;4.490;2023-04-05T06:45:13;102208.53;;;4.84;100.00
31005;BME280;17676;52.254;4.490;2023-04-05T06:47:43;102195.28;;;4.92;100.00
31005;BME280;17676;52.254;4.490;2023-04-05T06:50:09;102201.22;;;5.05;100.00
31005;BME280;17676;52.254;4.490;2023-04-05T06:52:35;102194.88;;;5.16;100.00
31005;BME280;17676;52.254;4.490;2023-04-05T06:55:04;102195.56;;;5.27;100.00
31005;BME280;17676;52.254;4.490;2023-04-05T06:57:30;102179.03;;;5.22;100.00
31005;BME280;17676;52.254;4.490;2023-04-05T06:59:56;102181.00;;;5.39;100.00
31005;BME280;17676;52.254;4.490;2023-04-05T07:02:21;102182.41;;;5.53;100.00
31005;BME280;17676;52.254;4.490;2023-04-05T07:04:47;102194.84;;;5.54;100.00
31005;BME280;17676;52.254;4.490;2023-04-05T07:07:13;102202.91;;;5.64;100.00
31005;BME280;17676;52.254;4.490;2023-04-05T07:09:39;102200.63;;;5.69;100.00
31005;BME280;17676;52.254;4.490;2023-04-05T07:12:05;102194.97;;;5.72;100.00
31005;BME280;17676;52.254;4.490;2023-04-05T07:14:33;102197.25;;;5.67;100.00
31005;BME280;17676;52.254;4.490;2023-04-05T07:17:00;102203.44;;;5.77;100.00
31005;BME280;17676;52.254;4.490;2023-04-05T07:19:26;102190.03;;;5.86;100.00
31005;BME280;17676;52.254;4.490;2023-04-05T07:21:52;102192.41;;;5.80;100.00
31005;BME280;17676;52.254;4.490;2023-04-05T07:24:18;102200.06;;;5.94;100.00
31005;BME280;17676;52.254;4.490;2023-04-05T07:26:43;102202.28;;;6.08;100.00
31005;BME280;17676;52.254;4.490;2023-04-05T07:29:10;102193.75;;;6.22;100.00
31005;BME280;17676;52.254;4.490;2023-04-05T07:31:37;102192.03;;;6.57;100.00
31005;BME280;17676;52.254;4.490;2023-04-05T07:34:03;102196.38;;;6.68;100.00
31005;BME280;17676;52.254;4.490;2023-04-05T07:36:34;102199.50;;;8.29;100.00
31005;BME280;17676;52.254;4.490;2023-04-05T07:39:00;102189.56;;;9.44;100.00
31005;BME280;17676;52.254;4.490;2023-04-05T07:41:28;102200.72;;;10.68;100.00
31005;BME280;17676;52.254;4.490;2023-04-05T07:43:57;102203.41;;;11.29;100.00
31005;BME280;17676;52.254;4.490;2023-04-05T07:46:23;102207.53;;;12.94;100.00
31005;BME280;17676;52.254;4.490;2023-04-05T07:48:48;102209.97;;;14.02;100.00
31005;BME280;17676;52.254;4.490;2023-04-05T07:51:14;102213.69;;;14.91;100.00
31005;BME280;17676;52.254;4.490;2023-04-05T07:53:40;102205.06;;;13.49;100.00
31005;BME280;17676;52.254;4.490;2023-04-05T07:56:08;102194.78;;;11.03;100.00
31005;BME280;17676;52.254;4.490;2023-04-05T07:58:35;102183.66;;;13.04;100.00
31005;BME280;17676;52.254;4.490;2023-04-05T08:01:02;102195.06;;;14.53;100.00
31005;BME280;17676;52.254;4.490;2023-04-05T08:03:28;102182.53;;;14.65;100.00
31005;BME280;17676;52.254;4.490;2023-04-05T08:05:54;102204.66;;;13.94;100.00
31005;BME280;17676;52.254;4.490;2023-04-05T08:08:20;102201.81;;;12.02;100.00
31005;BME280;17676;52.254;4.490;2023-04-05T08:10:46;102198.97;;;10.83;100.00
31005;BME280;17676;52.254;4.490;2023-04-05T08:13:11;102196.06;;;12.34;100.00
31005;BME280;17676;52.254;4.490;2023-04-05T08:15:37;102189.50;;;11.32;100.00
31005;BME280;17676;52.254;4.490;2023-04-05T08:18:08;102201.94;;;10.96;100.00
31005;BME280;17676;52.254;4.490;2023-04-05T08:20:37;102192.59;;;12.55;100.00
31005;BME280;17676;52.254;4.490;2023-04-05T08:23:06;102196.78;;;13.57;100.00
31005;BME280;17676;52.254;4.490;2023-04-05T08:25:32;102199.53;;;14.33;100.00
31005;BME280;17676;52.254;4.490;2023-04-05T08:28:00;102201.81;;;14.64;100.00
31005;BME280;17676;52.254;4.490;2023-04-05T08:30:26;102197.47;;;15.30;100.00
31005;BME280;17676;52.254;4.490;2023-04-05T08:32:51;102214.78;;;15.69;100.00
31005;BME280;17676;52.254;4.490;2023-04-05T08:35:17;102208.06;;;16.24;100.00
31005;BME280;17676;52.254;4.490;2023-04-05T08:37:43;102202.75;;;14.84;100.00
31005;BME280;17676;52.254;4.490;2023-04-05T08:40:09;102217.31;;;15.71;100.00
31005;BME280;17676;52.254;4.490;2023-04-05T08:45:46;102190.63;;;15.73;100.00
31005;BME280;17676;52.254;4.490;2023-04-05T08:48:14;102197.84;;;16.89;100.00
31005;BME280;17676;52.254;4.490;2023-04-05T08:50:40;102195.38;;;17.56;100.00
31005;BME280;17676;52.254;4.490;2023-04-05T08:53:06;102226.94;;;16.64;100.00
31005;BME280;17676;52.254;4.490;2023-04-05T08:55:36;102222.41;;;17.02;100.00
31005;BME280;17676;52.254;4.490;2023-04-05T08:58:03;102216.53;;;17.43;100.00
31005;BME280;17676;52.254;4.490;2023-04-05T09:00:31;102234.47;;;18.01;98.59
31005;BME280;17676;52.254;4.490;2023-04-05T09:02:58;102237.09;;;15.99;100.00
31005;BME280;17676;52.254;4.490;2023-04-05T09:05:27;102241.53;;;17.09;97.63
31005;BME280;17676;52.254;4.490;2023-04-05T09:07:55;102230.31;;;15.62;100.00
31005;BME280;17676;52.254;4.490;2023-04-05T09:10:21;102231.13;;;16.80;100.00
31005;BME280;17676;52.254;4.490;2023-04-05T09:12:47;102203.97;;;17.91;96.36
31005;BME280;17676;52.254;4.490;2023-04-05T09:15:15;102219.84;;;15.79;93.84
31005;BME280;17676;52.254;4.490;2023-04-05T09:17:42;102218.94;;;15.46;97.63
31005;BME280;17676;52.254;4.490;2023-04-05T09:20:08;102215.72;;;14.75;99.84
31005;BME280;17676;52.254;4.490;2023-04-05T09:22:44;102216.88;;;16.52;97.04
31005;BME280;17676;52.254;4.490;2023-04-05T09:25:12;102205.59;;;16.92;93.41
31005;BME280;17676;52.254;4.490;2023-04-05T09:27:55;102217.66;;;17.29;93.22
31005;BME280;17676;52.254;4.490;2023-04-05T09:30:22;102217.47;;;18.41;87.21
31005;BME280;17676;52.254;4.490;2023-04-05T09:32:49;102224.81;;;18.65;84.01
31005;BME280;17676;52.254;4.490;2023-04-05T09:35:19;102226.25;;;18.50;81.43
31005;BME280;17676;52.254;4.490;2023-04-05T09:40:21;102213.97;;;18.28;81.38
31005;BME280;17676;52.254;4.490;2023-04-05T09:42:49;102219.72;;;17.33;78.85
31005;BME280;17676;52.254;4.490;2023-04-05T09:45:17;102220.63;;;17.21;77.87
31005;BME280;17676;52.254;4.490;2023-04-05T09:47:53;102233.44;;;17.27;77.10
31005;BME280;17676;52.254;4.490;2023-04-05T09:50:19;102226.91;;;17.72;76.86
31005;BME280;17676;52.254;4.490;2023-04-05T09:52:45;102221.22;;;17.67;73.83
31005;BME280;17676;52.254;4.490;2023-04-05T09:55:25;102225.22;;;18.69;77.69
31005;BME280;17676;52.254;4.490;2023-04-05T09:57:52;102227.31;;;19.03;71.07
31005;BME280;17676;52.254;4.490;2023-04-05T10:00:19;102214.53;;;18.97;70.94
31005;BME280;17676;52.254;4.490;2023-04-05T10:02:45;102224.34;;;17.77;73.99
31005;BME280;17676;52.254;4.490;2023-04-05T10:05:12;102205.31;;;18.31;77.93
31005;BME280;17676;52.254;4.490;2023-04-05T10:07:42;102204.28;;;18.07;71.41
31005;BME280;17676;52.254;4.490;2023-04-05T10:10:09;102192.78;;;16.93;79.30
31005;BME280;17676;52.254;4.490;2023-04-05T10:12:37;102206.69;;;16.85;77.57
31005;BME280;17676;52.254;4.490;2023-04-05T10:15:04;102199.72;;;17.33;74.56
31005;BME280;17676;52.254;4.490;2023-04-05T10:17:45;102189.88;;;16.75;75.92
31005;BME280;17676;52.254;4.490;2023-04-05T10:20:20;102198.41;;;15.89;79.93
31005;BME280;17676;52.254;4.490;2023-04-05T10:28:03;102199.31;;;16.92;72.72
31005;BME280;17676;52.254;4.490;2023-04-05T10:30:34;102186.53;;;16.73;74.13
31005;BME280;17676;52.254;4.490;2023-04-05T10:35:54;102193.81;;;17.36;73.06
31005;BME280;17676;52.254;4.490;2023-04-05T10:38:28;102189.59;;;16.13;78.72
31005;BME280;17676;52.254;4.490;2023-04-05T10:41:14;102178.56;;;17.15;79.05
31005;BME280;17676;52.254;4.490;2023-04-05T10:43:41;102194.09;;;18.14;72.59
31005;BME280;17676;52.254;4.490;2023-04-05T10:46:07;102189.25;;;17.92;72.45
31005;BME280;17676;52.254;4.490;2023-04-05T10:48:58;102183.72;;;15.96;79.25
31005;BME280;17676;52.254;4.490;2023-04-05T10:51:26;102179.31;;;15.82;79.59
31005;BME280;17676;52.254;4.490;2023-04-05T10:53:55;102186.81;;;16.52;76.99
31005;BME280;17676;52.254;4.490;2023-04-05T10:56:21;102183.69;;;15.57;78.89
31005;BME280;17676;52.254;4.490;2023-04-05T10:58:48;102175.50;;;15.90;75.85
31005;BME280;17676;52.254;4.490;2023-04-05T11:01:16;102173.00;;;15.69;75.90
31005;BME280;17676;52.254;4.490;2023-04-05T11:03:50;102171.91;;;16.48;80.46
31005;BME280;17676;52.254;4.490;2023-04-05T11:08:47;102170.56;;;16.70;73.64
31005;BME280;17676;52.254;4.490;2023-04-05T11:11:17;102163.44;;;17.13;74.39
31005;BME280;17676;52.254;4.490;2023-04-05T11:13:56;102162.78;;;17.17;74.76
31005;BME280;17676;52.254;4.490;2023-04-05T11:16:37;102151.81;;;16.80;72.03
31005;BME280;17676;52.254;4.490;2023-04-05T11:19:02;102156.75;;;16.39;74.74
31005;BME280;17676;52.254;4.490;2023-04-05T11:21:29;102147.91;;;16.50;75.34
31005;BME280;17676;52.254;4.490;2023-04-05T11:24:06;102149.06;;;15.77;77.19
31005;BME280;17676;52.254;4.490;2023-04-05T11:26:33;102154.72;;;16.15;83.07
31005;BME280;17676;52.254;4.490;2023-04-05T11:29:17;102150.88;;;16.55;74.93
31005;BME280;17676;52.254;4.490;2023-04-05T11:31:59;102143.81;;;15.76;73.79
31005;BME280;17676;52.254;4.490;2023-04-05T11:34:25;102145.69;;;15.56;76.97
31005;BME280;17676;52.254;4.490;2023-04-05T11:36:51;102140.44;;;15.54;78.71
31005;BME280;17676;52.254;4.490;2023-04-05T11:42:05;102141.88;;;14.70;82.75
31005;BME280;17676;52.254;4.490;2023-04-05T11:44:47;102121.47;;;16.44;89.99
31005;BME280;17676;52.254;4.490;2023-04-05T11:47:17;102124.59;;;16.91;91.63
31005;BME280;17676;52.254;4.490;2023-04-05T11:49:49;102128.38;;;16.40;94.23
31005;BME280;17676;52.254;4.490;2023-04-05T11:52:17;102097.81;;;15.60;100.00
31005;BME280;17676;52.254;4.490;2023-04-05T11:54:43;102106.41;;;15.31;100.00
31005;BME280;17676;52.254;4.490;2023-04-05T11:57:20;102099.59;;;16.44;100.00
31005;BME280;17676;52.254;4.490;2023-04-05T11:59:51;102094.22;;;17.06;98.39
31005;BME280;17676;52.254;4.490;2023-04-05T12:02:20;102091.09;;;16.65;97.41
31005;BME280;17676;52.254;4.490;2023-04-05T12:04:54;102098.28;;;16.97;95.76
31005;BME280;17676;52.254;4.490;2023-04-05T12:07:20;102107.56;;;16.39;95.72
31005;BME280;17676;52.254;4.490;2023-04-05T12:10:08;102083.72;;;15.89;97.71
31005;BME280;17676;52.254;4.490;2023-04-05T12:12:43;102077.97;;;16.23;97.45
31005;BME280;17676;52.254;4.490;2023-04-05T12:15:11;102076.78;;;16.69;96.86
31005;BME280;17676;52.254;4.490;2023-04-05T12:17:39;102104.09;;;17.38;95.95
31005;BME280;17676;52.254;4.490;2023-04-05T12:20:06;102075.31;;;17.60;94.65
31005;BME280;17676;52.254;4.490;2023-04-05T12:22:32;102078.16;;;17.16;90.76
31005;BME280;17676;52.254;4.490;2023-04-05T12:24:58;102065.09;;;16.36;100.00
31005;BME280;17676;52.254;4.490;2023-04-05T12:27:24;102073.00;;;16.64;100.00
31005;BME280;17676;52.254;4.490;2023-04-05T12:30:20;102083.63;;;16.34;99.69
31005;BME280;17676;52.254;4.490;2023-04-05T12:32:50;102078.16;;;16.41;100.00
31005;BME280;17676;52.254;4.490;2023-04-05T12:35:20;102083.22;;;16.31;100.00
31005;BME280;17676;52.254;4.490;2023-04-05T12:37:49;102079.97;;;15.70;100.00
31005;BME280;17676;52.254;4.490;2023-04-05T12:40:22;102075.72;;;15.94;100.00
31005;BME280;17676;52.254;4.490;2023-04-05T12:42:49;102083.69;;;16.15;100.00
31005;BME280;17676;52.254;4.490;2023-04-05T12:45:15;102071.56;;;15.78;100.00
31005;BME280;17676;52.254;4.490;2023-04-05T12:47:57;102065.91;;;15.54;100.00
31005;BME280;17676;52.254;4.490;2023-04-05T12:50:30;102070.97;;;15.37;100.00
31005;BME280;17676;52.254;4.490;2023-04-05T12:52:57;102064.81;;;15.03;100.00
31005;BME280;17676;52.254;4.490;2023-04-05T12:55:25;102056.56;;;14.83;100.00
31005;BME280;17676;52.254;4.490;2023-04-05T12:57:53;102045.06;;;14.88;100.00
31005;BME280;17676;52.254;4.490;2023-04-05T13:00:20;102056.84;;;15.08;100.00
31005;BME280;17676;52.254;4.490;2023-04-05T13:02:50;102051.38;;;15.08;100.00
31005;BME280;17676;52.254;4.490;2023-04-05T13:05:24;102051.13;;;14.83;100.00
31005;BME280;17676;52.254;4.490;2023-04-05T13:07:51;102030.75;;;14.59;100.00
31005;BME280;17676;52.254;4.490;2023-04-05T13:10:19;102009.34;;;14.56;100.00
31005;BME280;17676;52.254;4.490;2023-04-05T13:12:46;102033.47;;;14.59;100.00
31005;BME280;17676;52.254;4.490;2023-04-05T13:15:12;102020.88;;;14.45;100.00
31005;BME280;17676;52.254;4.490;2023-04-05T13:17:39;102010.22;;;14.16;100.00
31005;BME280;17676;52.254;4.490;2023-04-05T13:20:05;102017.63;;;14.22;100.00
31005;BME280;17676;52.254;4.490;2023-04-05T13:22:31;102011.09;;;13.76;100.00